createdAt,value
2022-11-23T00:00:40.061Z,37.23
2022-11-23T00:03:08.083Z,35.73
2022-11-23T00:05:36.146Z,32.30
2022-11-23T00:08:06.046Z,34.00
2022-11-23T00:10:34.059Z,34.53
2022-11-23T00:13:02.313Z,35.60
2022-11-23T00:15:30.367Z,39.10
2022-11-23T00:18:00.073Z,37.83
2022-11-23T00:20:28.113Z,35.13
2022-11-23T00:22:56.109Z,33.80
2022-11-23T00:25:25.474Z,30.43
2022-11-23T00:27:53.486Z,33.20
2022-11-23T00:30:21.665Z,35.50
2022-11-23T00:32:49.726Z,35.57
2022-11-23T00:35:17.971Z,35.33
2022-11-23T00:37:46.005Z,31.23
2022-11-23T00:40:14.240Z,35.23
2022-11-23T00:42:43.652Z,36.30
2022-11-23T00:45:12.144Z,29.93
2022-11-23T00:47:40.170Z,31.57
2022-11-23T00:50:09.220Z,29.80
2022-11-23T00:52:37.231Z,32.93
2022-11-23T00:55:06.051Z,33.43
2022-11-23T00:57:35.050Z,32.97
2022-11-23T01:00:06.333Z,30.87
2022-11-23T01:02:36.942Z,28.00
2022-11-23T01:05:06.704Z,30.23
2022-11-23T01:07:34.780Z,34.03
2022-11-23T01:10:02.844Z,28.73
2022-11-23T01:12:31.008Z,33.03
2022-11-23T01:14:59.024Z,31.23
2022-11-23T01:17:28.631Z,32.13
2022-11-23T01:19:56.661Z,32.47
2022-11-23T01:22:24.664Z,35.53
2022-11-23T01:24:52.690Z,31.20
2022-11-23T01:27:20.737Z,31.33
2022-11-23T01:29:49.108Z,35.90
2022-11-23T01:32:17.109Z,31.07
2022-11-23T01:34:46.517Z,26.80
2022-11-23T01:37:14.533Z,30.37
2022-11-23T01:39:42.561Z,31.93
2022-11-23T01:42:13.944Z,33.00
2022-11-23T01:44:45.787Z,26.97
2022-11-23T01:47:13.775Z,31.27
2022-11-23T01:49:44.954Z,30.97
2022-11-23T01:52:18.236Z,30.97
2022-11-23T01:54:49.815Z,28.40
2022-11-23T01:57:22.448Z,32.30
2022-11-23T01:59:51.678Z,29.63
2022-11-23T02:02:20.354Z,32.40
2022-11-23T02:04:51.617Z,32.57
2022-11-23T02:07:24.045Z,29.33
2022-11-23T02:09:52.928Z,33.40
2022-11-23T02:12:20.989Z,32.80
2022-11-23T02:14:49.117Z,29.67
2022-11-23T02:17:17.196Z,30.20
2022-11-23T02:19:58.137Z,28.63
2022-11-23T02:22:33.568Z,30.17
2022-11-23T02:25:05.014Z,33.17
2022-11-23T02:27:34.528Z,32.47
2022-11-23T02:30:03.907Z,37.83
2022-11-23T02:32:32.809Z,33.37
2022-11-23T02:35:00.805Z,33.30
2022-11-23T02:37:28.847Z,32.57
2022-11-23T02:40:00.630Z,29.80
2022-11-23T02:42:29.975Z,28.13
2022-11-23T02:45:06.394Z,29.33
2022-11-23T02:47:34.403Z,32.93
2022-11-23T02:50:02.476Z,30.03
2022-11-23T02:52:30.493Z,29.77
2022-11-23T02:54:58.670Z,32.63
2022-11-23T02:57:26.730Z,33.90
2022-11-23T02:59:54.735Z,26.40
2022-11-23T03:02:24.125Z,28.60
2022-11-23T03:04:52.118Z,29.33
2022-11-23T03:07:20.165Z,30.90
2022-11-23T03:09:48.308Z,31.07
2022-11-23T03:12:16.756Z,29.27
2022-11-23T03:14:44.767Z,29.43
2022-11-23T03:17:12.796Z,28.37
2022-11-23T03:19:42.203Z,30.97
2022-11-23T03:22:10.250Z,28.50
2022-11-23T03:24:38.674Z,27.70
2022-11-23T03:27:06.743Z,29.70
2022-11-23T03:29:34.920Z,24.23
2022-11-23T03:32:03.093Z,28.87
2022-11-23T03:34:31.111Z,25.77
2022-11-23T03:37:00.520Z,29.27
2022-11-23T03:39:28.580Z,31.97
2022-11-23T03:41:56.581Z,29.43
2022-11-23T03:44:25.057Z,28.10
2022-11-23T03:46:53.090Z,28.13
2022-11-23T03:49:21.184Z,29.93
2022-11-23T03:51:49.246Z,30.47
2022-11-23T03:54:18.647Z,30.03
2022-11-23T03:56:46.702Z,26.57
2022-11-23T03:59:14.721Z,27.20
2022-11-23T04:01:42.736Z,31.57
2022-11-23T04:04:10.727Z,31.33
2022-11-23T04:06:38.760Z,27.23
2022-11-23T04:09:06.833Z,34.57
2022-11-23T04:11:36.207Z,26.37
2022-11-23T04:14:04.250Z,26.73
2022-11-23T04:16:32.329Z,23.33
2022-11-23T04:19:00.373Z,26.63
2022-11-23T04:21:28.387Z,25.00
2022-11-23T04:23:56.422Z,25.57
2022-11-23T04:26:24.444Z,24.97
2022-11-23T04:28:53.823Z,22.10
2022-11-23T04:31:21.866Z,26.43
2022-11-23T04:33:49.958Z,29.63
2022-11-23T04:36:18.032Z,24.87
2022-11-23T04:38:46.041Z,27.23
2022-11-23T04:41:14.048Z,27.30
2022-11-23T04:43:42.062Z,27.83
2022-11-23T04:46:12.641Z,29.17
2022-11-23T04:48:40.667Z,24.20
2022-11-23T04:51:08.746Z,24.80
2022-11-23T04:53:37.028Z,34.00
2022-11-23T04:56:05.250Z,28.87
2022-11-23T04:58:34.693Z,28.97
2022-11-23T05:01:02.958Z,27.47
2022-11-23T05:03:34.936Z,32.80
2022-11-23T05:06:03.498Z,30.23
2022-11-23T05:08:31.940Z,28.50
2022-11-23T05:11:00.224Z,26.20
2022-11-23T05:13:28.444Z,25.93
2022-11-23T05:15:56.475Z,27.77
2022-11-23T05:18:24.538Z,27.67
2022-11-23T05:20:53.959Z,28.50
2022-11-23T05:23:21.995Z,28.97
2022-11-23T05:25:50.026Z,25.77
2022-11-23T05:31:08.452Z,24.87
2022-11-23T05:33:36.811Z,27.93
2022-11-23T05:36:06.939Z,27.77
2022-11-23T05:38:34.991Z,25.90
2022-11-23T05:41:02.999Z,26.73
2022-11-23T05:43:31.036Z,24.70
2022-11-23T05:46:00.347Z,27.53
2022-11-23T05:48:28.412Z,24.67
2022-11-23T05:50:58.570Z,26.23
2022-11-23T05:53:32.434Z,29.93
2022-11-23T05:56:01.409Z,25.30
2022-11-23T05:58:29.555Z,27.83
2022-11-23T06:00:59.375Z,24.20
2022-11-23T06:03:27.711Z,28.37
2022-11-23T06:05:55.901Z,27.10
2022-11-23T06:08:23.978Z,29.20
2022-11-23T06:10:53.343Z,27.77
2022-11-23T06:13:21.571Z,25.50
2022-11-23T06:15:49.652Z,28.93
2022-11-23T06:18:17.681Z,24.77
2022-11-23T06:20:45.738Z,26.53
2022-11-23T06:23:13.751Z,28.43
2022-11-23T06:25:55.313Z,27.20
2022-11-23T06:28:23.326Z,24.23
2022-11-23T06:30:51.371Z,27.47
2022-11-23T06:33:19.493Z,26.60
2022-11-23T06:35:54.796Z,27.83
2022-11-23T06:38:22.842Z,29.37
2022-11-23T06:40:50.893Z,27.30
2022-11-23T06:43:20.500Z,27.83
2022-11-23T06:45:48.518Z,35.50
2022-11-23T06:48:16.570Z,29.07
2022-11-23T06:50:44.585Z,32.40
2022-11-23T06:53:12.667Z,26.37
2022-11-23T06:55:40.929Z,27.90
2022-11-23T06:58:08.971Z,28.80
2022-11-23T07:00:38.337Z,24.33
2022-11-23T07:03:06.358Z,26.67
2022-11-23T07:05:34.398Z,24.10
2022-11-23T07:08:02.429Z,26.77
2022-11-23T07:10:30.460Z,25.37
2022-11-23T07:13:05.325Z,27.90
2022-11-23T07:15:33.915Z,23.10
2022-11-23T07:18:03.376Z,24.00
2022-11-23T07:20:31.400Z,25.97
2022-11-23T07:23:03.110Z,26.87
2022-11-23T07:25:31.709Z,24.07
2022-11-23T07:28:01.199Z,25.30
2022-11-23T07:30:30.822Z,26.67
2022-11-23T07:33:01.265Z,23.27
2022-11-23T07:35:31.738Z,26.13
2022-11-23T07:38:00.245Z,25.50
2022-11-23T07:40:28.521Z,26.33
2022-11-23T07:43:01.782Z,25.37
2022-11-23T07:45:30.697Z,25.97
2022-11-23T07:48:02.653Z,26.03
2022-11-23T07:50:33.156Z,27.67
2022-11-23T07:53:03.817Z,25.80
2022-11-23T07:55:32.016Z,24.33
2022-11-23T07:58:00.228Z,23.87
2022-11-23T08:00:29.819Z,26.60
2022-11-23T08:05:48.764Z,25.57
2022-11-23T08:08:16.867Z,26.70
2022-11-23T08:10:49.931Z,26.53
2022-11-23T08:13:20.867Z,26.00
2022-11-23T08:15:54.473Z,25.00
2022-11-23T08:18:24.458Z,25.97
2022-11-23T08:20:53.987Z,27.87
2022-11-23T08:23:22.776Z,28.47
2022-11-23T08:25:50.796Z,26.40
2022-11-23T08:28:19.352Z,27.93
2022-11-23T08:30:47.863Z,28.73
2022-11-23T08:33:16.493Z,25.60
2022-11-23T08:35:44.544Z,24.57
2022-11-23T08:38:14.159Z,28.03
2022-11-23T08:40:42.682Z,25.57
2022-11-23T08:43:10.765Z,26.13
2022-11-23T08:45:38.793Z,25.43
2022-11-23T08:48:07.669Z,28.17
2022-11-23T08:50:37.099Z,29.13
2022-11-23T08:53:05.706Z,28.57
2022-11-23T08:55:35.275Z,24.83
2022-11-23T08:58:03.288Z,36.57
2022-11-23T09:00:31.594Z,30.23
2022-11-23T09:03:00.926Z,26.57
2022-11-23T09:05:30.038Z,34.77
2022-11-23T09:08:01.092Z,37.30
2022-11-23T09:10:29.416Z,27.53
2022-11-23T09:13:00.120Z,29.73
2022-11-23T09:15:28.124Z,33.43
2022-11-23T09:17:56.204Z,28.27
2022-11-23T09:20:24.360Z,37.63
2022-11-23T09:22:53.523Z,32.60
2022-11-23T09:25:22.287Z,30.83
2022-11-23T09:27:50.921Z,35.37
2022-11-23T09:30:20.360Z,29.57
2022-11-23T09:32:48.386Z,32.47
2022-11-23T09:35:16.438Z,31.43
2022-11-23T09:37:44.472Z,34.97
2022-11-23T09:40:16.124Z,32.23
2022-11-23T09:42:56.035Z,35.67
2022-11-23T09:45:31.922Z,31.87
2022-11-23T09:48:19.037Z,30.17
2022-11-23T09:50:48.888Z,32.03
2022-11-23T09:53:21.735Z,36.43
2022-11-23T09:55:52.801Z,32.97
2022-11-23T09:58:23.193Z,36.47
2022-11-23T10:01:01.782Z,43.60
2022-11-23T10:03:32.838Z,37.93
2022-11-23T10:06:07.280Z,36.77
2022-11-23T10:08:45.848Z,32.63
2022-11-23T10:11:36.638Z,36.53
2022-11-23T10:14:15.732Z,35.70
2022-11-23T10:16:53.659Z,38.87
2022-11-23T10:19:29.275Z,34.00
2022-11-23T10:22:07.463Z,39.00
2022-11-23T10:24:40.576Z,33.37
2022-11-23T10:27:17.397Z,38.23
2022-11-23T10:29:45.909Z,41.67
2022-11-23T10:32:27.701Z,36.43
2022-11-23T10:35:05.254Z,35.80
2022-11-23T10:37:34.600Z,33.33
2022-11-23T10:40:02.604Z,31.70
2022-11-23T10:42:34.887Z,32.97
2022-11-23T10:45:04.592Z,32.67
2022-11-23T10:47:40.947Z,35.07
2022-11-23T10:50:29.661Z,36.80
2022-11-23T10:53:00.350Z,29.53
2022-11-23T10:55:30.947Z,32.40
2022-11-23T10:58:00.132Z,30.90
2022-11-23T11:00:31.098Z,30.50
2022-11-23T11:03:03.359Z,34.23
2022-11-23T11:08:24.986Z,29.80
2022-11-23T11:10:59.875Z,28.73
2022-11-23T11:13:31.027Z,28.40
2022-11-23T11:16:01.358Z,32.40
2022-11-23T11:18:34.181Z,26.80
2022-11-23T11:21:05.825Z,31.40
2022-11-23T11:23:35.529Z,24.77
2022-11-23T11:26:10.509Z,29.33
2022-11-23T11:28:41.673Z,29.67
2022-11-23T11:31:38.269Z,29.63
2022-11-23T11:34:18.831Z,25.83
2022-11-23T11:36:54.096Z,26.50
2022-11-23T11:39:29.665Z,28.57
2022-11-23T11:42:01.572Z,24.97
2022-11-23T11:44:34.523Z,26.70
2022-11-23T11:47:11.362Z,26.23
2022-11-23T11:49:47.723Z,30.47
2022-11-23T11:52:22.089Z,29.30
2022-11-23T11:54:56.662Z,38.90
2022-11-23T11:57:29.137Z,29.47
2022-11-23T11:59:58.703Z,32.10
2022-11-23T12:02:29.385Z,26.03
2022-11-23T12:05:08.791Z,27.10
2022-11-23T12:07:40.742Z,28.97
2022-11-23T12:10:15.222Z,25.00
2022-11-23T12:12:43.325Z,24.63
2022-11-23T12:15:47.768Z,24.63
2022-11-23T12:18:23.749Z,23.03
2022-11-23T12:21:03.432Z,23.67
2022-11-23T12:23:43.898Z,23.80
2022-11-23T12:26:25.240Z,24.10
2022-11-23T12:29:28.031Z,19.67
2022-11-23T12:32:09.076Z,22.00
2022-11-23T12:34:56.984Z,17.07
2022-11-23T12:37:41.034Z,20.90
2022-11-23T12:40:38.063Z,18.77
2022-11-23T12:43:13.439Z,19.60
2022-11-23T12:45:54.198Z,16.13
2022-11-23T12:48:41.969Z,15.67
2022-11-23T12:51:21.202Z,17.27
2022-11-23T12:54:01.056Z,19.07
2022-11-23T12:56:52.323Z,12.57
2022-11-23T12:59:21.784Z,14.97
2022-11-23T13:01:53.264Z,16.40
2022-11-23T13:04:49.477Z,17.63
2022-11-23T13:08:01.517Z,12.33
2022-11-23T13:10:43.878Z,16.43
2022-11-23T13:13:36.245Z,16.87
2022-11-23T13:16:22.718Z,14.03
2022-11-23T13:19:07.981Z,22.70
2022-11-23T13:21:38.601Z,22.90
2022-11-23T13:24:26.136Z,18.73
2022-11-23T13:27:31.967Z,17.23
2022-11-23T13:30:11.078Z,13.47
2022-11-23T13:32:56.057Z,13.30
2022-11-23T13:36:10.098Z,14.23
2022-11-23T13:38:42.964Z,11.90
2022-11-23T13:41:53.626Z,13.90
2022-11-23T13:44:24.166Z,13.27
2022-11-23T13:47:05.586Z,11.40
2022-11-23T13:49:39.014Z,12.93
2022-11-23T13:52:26.229Z,16.00
2022-11-23T13:54:57.610Z,12.80
2022-11-23T13:57:25.843Z,11.67
2022-11-23T13:59:53.882Z,13.57
2022-11-23T14:02:29.397Z,12.17
2022-11-23T14:05:33.019Z,10.27
2022-11-23T14:08:04.305Z,17.43
2022-11-23T14:10:33.496Z,13.77
2022-11-23T14:13:09.181Z,12.50
2022-11-23T14:15:39.040Z,18.23
2022-11-23T14:18:32.352Z,13.00
2022-11-23T14:21:13.687Z,13.50
2022-11-23T14:24:26.467Z,13.00
2022-11-23T14:27:39.158Z,14.47
2022-11-23T14:30:07.842Z,14.87
2022-11-23T14:32:50.649Z,13.13
2022-11-23T14:35:27.737Z,15.40
2022-11-23T14:38:13.899Z,28.77
2022-11-23T14:40:54.266Z,18.33
2022-11-23T14:43:23.357Z,14.17
2022-11-23T14:45:51.616Z,17.57
2022-11-23T14:48:24.034Z,10.73
2022-11-23T14:51:05.263Z,12.07
2022-11-23T14:53:36.651Z,11.33
2022-11-23T14:56:04.908Z,16.17
2022-11-23T14:58:34.510Z,13.40
2022-11-23T15:01:03.791Z,17.37
2022-11-23T15:03:49.823Z,14.33
2022-11-23T15:06:22.718Z,12.40
2022-11-23T15:08:58.373Z,13.40
2022-11-23T15:11:29.311Z,12.40
2022-11-23T15:14:03.229Z,13.23
2022-11-23T15:16:39.485Z,11.17
2022-11-23T15:19:19.129Z,13.10
2022-11-23T15:21:49.440Z,13.07
2022-11-23T15:24:25.013Z,12.53
2022-11-23T15:26:54.002Z,13.83
2022-11-23T15:29:35.811Z,10.40
2022-11-23T15:34:56.899Z,16.47
2022-11-23T15:37:27.718Z,13.70
2022-11-23T15:39:56.949Z,12.20
2022-11-23T15:42:26.961Z,12.63
2022-11-23T15:44:55.443Z,12.73
2022-11-23T15:47:28.279Z,10.40
2022-11-23T15:50:01.842Z,12.80
2022-11-23T15:52:36.558Z,17.80
2022-11-23T15:55:09.869Z,21.13
2022-11-23T15:57:40.432Z,11.63
2022-11-23T16:00:10.579Z,9.50
2022-11-23T16:02:38.724Z,15.10
2022-11-23T16:05:13.912Z,16.60
2022-11-23T16:07:54.664Z,12.10
2022-11-23T16:10:25.924Z,14.77
2022-11-23T16:12:55.879Z,12.27
2022-11-23T16:15:49.090Z,11.67
2022-11-23T16:18:23.781Z,10.07
2022-11-23T16:20:55.122Z,10.50
2022-11-23T16:23:27.534Z,12.63
2022-11-23T16:25:59.783Z,11.20
2022-11-23T16:28:32.455Z,10.87
2022-11-23T16:31:01.403Z,10.87
2022-11-23T16:33:30.390Z,9.63
2022-11-23T16:35:58.532Z,9.33
2022-11-23T16:38:27.995Z,12.10
2022-11-23T16:40:56.479Z,9.87
2022-11-23T16:43:24.627Z,10.43
2022-11-23T16:45:52.934Z,12.10
2022-11-23T16:48:40.091Z,9.53
2022-11-23T16:51:10.790Z,12.97
2022-11-23T16:54:11.974Z,11.37
2022-11-23T16:56:31.053Z,14.37
2022-11-23T16:58:59.105Z,9.83
2022-11-23T17:01:29.567Z,12.83
2022-11-23T17:03:57.691Z,11.20
2022-11-23T17:06:26.261Z,11.53
2022-11-23T17:09:03.229Z,11.30
2022-11-23T17:11:38.470Z,10.10
2022-11-23T17:14:07.219Z,12.17
2022-11-23T17:16:35.396Z,10.83
2022-11-23T17:19:03.516Z,12.40
2022-11-23T17:21:31.535Z,15.03
2022-11-23T17:24:01.275Z,13.37
2022-11-23T17:26:35.464Z,14.57
2022-11-23T17:29:04.825Z,9.47
2022-11-23T17:31:32.898Z,10.77
2022-11-23T17:34:00.925Z,12.57
2022-11-23T17:36:30.932Z,13.13
2022-11-23T17:39:00.358Z,13.93
2022-11-23T17:41:29.531Z,16.90
2022-11-23T17:43:59.430Z,13.43
2022-11-23T17:46:31.417Z,15.43
2022-11-23T17:49:02.330Z,15.07
2022-11-23T17:51:30.674Z,14.40
2022-11-23T17:53:59.987Z,16.23
2022-11-23T17:56:28.024Z,18.90
2022-11-23T17:58:55.966Z,18.23
2022-11-23T18:01:24.832Z,21.37
2022-11-23T18:03:52.908Z,17.13
2022-11-23T18:06:22.625Z,19.83
2022-11-23T18:08:51.560Z,18.07
2022-11-23T18:11:21.689Z,17.60
2022-11-23T18:13:50.496Z,13.60
2022-11-23T18:16:20.607Z,12.67
2022-11-23T18:18:49.090Z,16.30
2022-11-23T18:21:17.687Z,11.60
2022-11-23T18:23:45.713Z,13.63
2022-11-23T18:26:19.563Z,14.10
2022-11-23T18:28:49.093Z,14.30
2022-11-23T18:31:17.779Z,13.10
2022-11-23T18:33:46.357Z,10.23
2022-11-23T18:36:14.743Z,13.30
2022-11-23T18:38:44.785Z,11.73
2022-11-23T18:41:13.496Z,16.73
2022-11-23T18:43:41.457Z,14.87
2022-11-23T18:46:12.142Z,14.10
2022-11-23T18:48:40.114Z,12.17
2022-11-23T18:51:11.676Z,14.47
2022-11-23T18:53:40.115Z,14.57
2022-11-23T18:56:09.617Z,17.57
2022-11-23T18:58:38.907Z,14.13
2022-11-23T19:01:13.230Z,15.77
2022-11-23T19:03:42.406Z,14.27
2022-11-23T19:06:13.603Z,13.97
2022-11-23T19:08:42.956Z,17.77
2022-11-23T19:11:16.227Z,14.77
2022-11-23T19:13:45.989Z,13.63
2022-11-23T19:16:17.368Z,15.70
2022-11-23T19:18:45.578Z,17.13
2022-11-23T19:21:15.295Z,14.30
2022-11-23T19:23:43.725Z,14.53
2022-11-23T19:26:11.748Z,17.07
2022-11-23T19:28:44.607Z,20.47
2022-11-23T19:31:14.246Z,17.33
2022-11-23T19:33:44.570Z,20.10
2022-11-23T19:36:14.489Z,16.53
2022-11-23T19:38:42.763Z,18.73
2022-11-23T19:41:10.977Z,18.33
2022-11-23T19:43:39.326Z,17.80
2022-11-23T19:46:10.338Z,18.07
2022-11-23T19:48:38.955Z,20.00
2022-11-23T19:51:11.227Z,20.07
2022-11-23T19:53:40.436Z,22.90
2022-11-23T19:56:10.928Z,24.13
2022-11-23T19:58:39.390Z,20.03
2022-11-23T20:01:09.016Z,17.57
2022-11-23T20:03:38.080Z,22.33
2022-11-23T20:06:10.042Z,19.33
2022-11-23T20:08:38.002Z,22.17
2022-11-23T20:11:10.254Z,22.10
2022-11-23T20:13:38.482Z,28.53
2022-11-23T20:16:08.345Z,25.80
2022-11-23T20:18:36.662Z,22.57
2022-11-23T20:21:05.115Z,24.03
2022-11-23T20:23:34.429Z,25.87
2022-11-23T20:26:02.401Z,30.33
2022-11-23T20:28:30.452Z,22.00
2022-11-23T20:31:04.421Z,23.43
2022-11-23T20:33:32.555Z,24.67
2022-11-23T20:36:09.536Z,24.10
2022-11-23T20:38:39.646Z,26.53
2022-11-23T20:41:15.600Z,26.17
2022-11-23T20:43:44.471Z,22.00
2022-11-23T20:46:12.696Z,22.73
2022-11-23T20:48:41.915Z,26.30
2022-11-23T20:51:10.774Z,27.23
2022-11-23T20:53:40.572Z,26.40
2022-11-23T20:56:11.768Z,27.97
2022-11-23T20:58:40.042Z,23.93
2022-11-23T21:01:09.537Z,25.90
2022-11-23T21:03:38.513Z,37.57
2022-11-23T21:06:07.937Z,30.67
2022-11-23T21:08:36.199Z,29.50
2022-11-23T21:11:29.617Z,36.30
2022-11-23T21:14:15.658Z,28.43
2022-11-23T21:16:52.706Z,30.87
2022-11-23T21:19:22.163Z,24.57
2022-11-23T21:21:50.523Z,28.93
2022-11-23T21:24:18.854Z,32.40
2022-11-23T21:26:48.498Z,30.77
2022-11-23T21:29:17.005Z,31.23
2022-11-23T21:31:46.265Z,29.93
2022-11-23T21:34:19.531Z,26.37
2022-11-23T21:36:47.935Z,29.47
2022-11-23T21:39:16.616Z,26.93
2022-11-23T21:41:44.878Z,33.23
2022-11-23T21:44:14.563Z,35.57
2022-11-23T21:46:43.018Z,35.83
2022-11-23T21:49:11.545Z,35.07
2022-11-23T21:51:42.348Z,31.60
2022-11-23T21:54:14.057Z,31.77
2022-11-23T21:56:42.703Z,33.53
2022-11-23T21:59:10.947Z,32.47
2022-11-23T22:01:40.628Z,29.10
2022-11-23T22:04:10.572Z,33.40
2022-11-23T22:06:39.626Z,29.07
2022-11-23T22:09:10.151Z,34.23
2022-11-23T22:11:40.860Z,33.57
2022-11-23T22:14:11.763Z,28.83
2022-11-23T22:16:43.785Z,35.03
2022-11-23T22:19:12.857Z,35.63
2022-11-23T22:21:42.438Z,28.93
2022-11-23T22:24:13.641Z,29.57
2022-11-23T22:26:41.670Z,31.33
2022-11-23T22:29:09.956Z,31.57
2022-11-23T22:31:38.177Z,29.77
2022-11-23T22:34:09.216Z,30.77
2022-11-23T22:36:37.579Z,30.50
2022-11-23T22:39:07.194Z,31.00
2022-11-23T22:41:37.092Z,29.70
2022-11-23T22:44:06.874Z,34.93
2022-11-23T22:46:35.157Z,30.30
2022-11-23T22:49:03.510Z,29.27
2022-11-23T22:51:33.054Z,31.63
2022-11-23T22:54:01.928Z,28.27
2022-11-23T22:56:31.488Z,27.70
2022-11-23T22:58:59.586Z,29.50
2022-11-23T23:01:29.476Z,24.70
2022-11-23T23:03:59.226Z,30.47
2022-11-23T23:06:29.162Z,27.60
2022-11-23T23:09:00.162Z,25.40
2022-11-23T23:11:29.815Z,26.13
2022-11-23T23:13:58.280Z,33.27
2022-11-23T23:16:26.787Z,29.80
2022-11-23T23:18:56.445Z,36.83
2022-11-23T23:21:25.291Z,27.70
2022-11-23T23:23:55.302Z,29.83
2022-11-23T23:26:27.132Z,28.10
2022-11-23T23:28:56.510Z,31.60
2022-11-23T23:31:25.601Z,28.60
2022-11-23T23:33:54.696Z,30.50
2022-11-23T23:36:24.397Z,30.03
2022-11-23T23:38:52.656Z,29.23
2022-11-23T23:41:20.919Z,29.07
2022-11-23T23:43:50.586Z,32.23
2022-11-23T23:46:18.910Z,29.07
2022-11-23T23:48:47.031Z,28.30
2022-11-23T23:51:16.913Z,35.47
2022-11-23T23:53:45.475Z,30.27
2022-11-23T23:56:15.293Z,32.43
2022-11-23T23:58:43.838Z,37.47
